createdAt,value
2022-10-13T00:02:36.007Z,3.40
2022-10-13T00:06:19.853Z,3.67
2022-10-13T00:10:01.647Z,3.42
2022-10-13T00:13:44.240Z,3.22
2022-10-13T00:17:26.101Z,3.35
2022-10-13T00:21:10.406Z,3.70
2022-10-13T00:24:53.852Z,3.05
2022-10-13T00:28:36.123Z,3.53
2022-10-13T00:32:18.611Z,3.33
2022-10-13T00:36:00.684Z,3.53
2022-10-13T00:39:42.470Z,3.78
2022-10-13T00:43:27.578Z,3.80
2022-10-13T00:47:10.046Z,4.07
2022-10-13T00:50:52.886Z,4.10
2022-10-13T00:54:34.875Z,4.30
2022-10-13T00:58:19.817Z,4.40
2022-10-13T01:02:03.412Z,3.72
2022-10-13T01:05:46.525Z,3.40
2022-10-13T01:09:35.435Z,3.95
2022-10-13T01:13:17.201Z,4.25
2022-10-13T01:17:22.615Z,3.78
2022-10-13T01:21:14.114Z,3.72
2022-10-13T01:25:04.959Z,3.20
2022-10-13T01:29:21.010Z,3.35
2022-10-13T01:33:17.749Z,3.47
2022-10-13T01:41:10.624Z,2.65
2022-10-13T01:44:59.847Z,2.40
2022-10-13T01:48:44.196Z,2.05
2022-10-13T01:52:31.611Z,2.28
2022-10-13T01:56:13.842Z,1.95
2022-10-13T01:59:55.647Z,1.88
2022-10-13T02:03:57.610Z,2.40
2022-10-13T02:07:46.874Z,2.30
2022-10-13T02:11:28.979Z,2.17
2022-10-13T02:15:14.550Z,2.58
2022-10-13T02:18:58.009Z,1.95
2022-10-13T02:22:46.061Z,2.92
2022-10-13T02:26:28.544Z,1.85
2022-10-13T02:30:20.391Z,2.55
2022-10-13T02:34:02.172Z,2.55
2022-10-13T02:37:44.172Z,2.67
2022-10-13T02:41:26.290Z,2.50
2022-10-13T02:45:08.947Z,2.42
2022-10-13T02:48:50.802Z,2.30
2022-10-13T02:52:32.699Z,2.60
2022-10-13T02:56:14.583Z,2.72
2022-10-13T02:59:56.366Z,2.28
2022-10-13T03:03:38.668Z,2.70
2022-10-13T03:07:20.515Z,2.45
2022-10-13T03:11:02.981Z,2.63
2022-10-13T03:14:44.783Z,2.97
2022-10-13T03:18:26.646Z,3.60
2022-10-13T03:22:08.490Z,2.42
2022-10-13T03:25:50.350Z,3.00
2022-10-13T03:29:32.403Z,2.80
2022-10-13T03:33:14.251Z,2.60
2022-10-13T03:36:56.050Z,3.30
2022-10-13T03:40:37.926Z,2.67
2022-10-13T03:44:19.941Z,2.85
2022-10-13T03:48:01.804Z,2.28
2022-10-13T03:51:43.630Z,2.08
2022-10-13T03:55:25.462Z,2.40
2022-10-13T03:59:08.283Z,2.05
2022-10-13T04:02:50.200Z,1.63
2022-10-13T04:06:32.483Z,2.08
2022-10-13T04:10:14.384Z,1.58
2022-10-13T04:13:57.042Z,1.38
2022-10-13T04:17:38.816Z,0.80
2022-10-13T04:21:21.782Z,0.70
2022-10-13T04:25:04.138Z,0.95
2022-10-13T04:28:47.447Z,1.02
2022-10-13T04:32:29.299Z,0.60
2022-10-13T04:36:13.427Z,1.15
2022-10-13T04:39:55.161Z,0.60
2022-10-13T04:43:37.446Z,0.77
2022-10-13T04:47:19.247Z,0.73
2022-10-13T04:51:22.359Z,0.70
2022-10-13T04:55:04.700Z,0.77
2022-10-13T04:58:47.083Z,0.85
2022-10-13T05:02:28.914Z,1.10
2022-10-13T05:06:19.118Z,0.90
2022-10-13T05:10:01.325Z,1.05
2022-10-13T05:13:43.483Z,0.90
2022-10-13T05:17:25.311Z,0.75
2022-10-13T05:21:13.652Z,0.73
2022-10-13T05:24:55.454Z,0.65
2022-10-13T05:28:37.939Z,0.80
2022-10-13T05:32:20.082Z,0.80
2022-10-13T05:36:26.658Z,0.90
2022-10-13T05:40:09.008Z,0.98
2022-10-13T05:43:54.587Z,0.63
2022-10-13T05:47:36.414Z,0.68
2022-10-13T05:51:23.674Z,1.02
2022-10-13T05:55:09.272Z,0.80
2022-10-13T05:58:55.576Z,0.93
2022-10-13T06:02:46.602Z,0.97
2022-10-13T06:06:31.463Z,0.70
2022-10-13T06:10:14.275Z,1.02
2022-10-13T06:13:56.103Z,0.70
2022-10-13T06:17:39.042Z,1.20
2022-10-13T06:21:20.847Z,0.82
2022-10-13T06:25:04.540Z,1.15
2022-10-13T06:28:49.824Z,0.60
2022-10-13T06:32:33.059Z,0.63
2022-10-13T06:36:15.145Z,0.88
2022-10-13T06:39:56.942Z,1.00
2022-10-13T06:43:40.350Z,0.88
2022-10-13T06:47:22.611Z,1.00
2022-10-13T06:51:13.279Z,0.80
2022-10-13T06:54:55.075Z,2.25
2022-10-13T06:58:37.611Z,2.20
2022-10-13T07:02:19.578Z,2.83
2022-10-13T07:06:03.748Z,1.52
2022-10-13T07:09:45.552Z,1.90
2022-10-13T07:13:27.639Z,1.77
2022-10-13T07:17:09.511Z,1.73
2022-10-13T07:20:51.333Z,1.38
2022-10-13T07:24:33.161Z,1.70
2022-10-13T07:28:15.042Z,1.30
2022-10-13T07:31:56.915Z,0.90
2022-10-13T07:35:39.390Z,0.90
2022-10-13T07:39:21.264Z,2.25
2022-10-13T07:43:03.163Z,2.70
2022-10-13T07:46:45.008Z,2.40
2022-10-13T07:50:26.895Z,1.98
2022-10-13T07:54:08.725Z,1.00
2022-10-13T07:57:50.510Z,1.38
2022-10-13T08:01:32.547Z,2.00
2022-10-13T08:05:14.431Z,2.22
2022-10-13T08:08:57.742Z,2.05
2022-10-13T08:12:39.690Z,2.10
2022-10-13T08:16:22.434Z,2.55
2022-10-13T08:20:06.007Z,2.35
2022-10-13T08:23:48.740Z,3.10
2022-10-13T08:27:49.830Z,3.92
2022-10-13T08:31:32.514Z,3.70
2022-10-13T08:35:14.595Z,2.53
2022-10-13T08:38:56.558Z,1.52
2022-10-13T08:42:38.405Z,1.73
2022-10-13T08:46:28.858Z,1.05
2022-10-13T08:50:23.214Z,1.35
2022-10-13T08:54:05.834Z,1.80
2022-10-13T08:57:47.677Z,1.95
2022-10-13T09:01:36.079Z,1.92
2022-10-13T09:05:43.381Z,1.45
2022-10-13T09:09:25.196Z,1.42
2022-10-13T09:13:08.681Z,1.00
2022-10-13T09:16:52.049Z,1.40
2022-10-13T09:20:34.070Z,1.80
2022-10-13T09:24:18.599Z,1.23
2022-10-13T09:28:09.299Z,1.60
2022-10-13T09:31:51.569Z,1.52
2022-10-13T09:35:35.040Z,1.40
2022-10-13T09:39:17.222Z,1.45
2022-10-13T09:43:01.628Z,2.08
2022-10-13T09:46:47.998Z,1.83
2022-10-13T09:50:32.051Z,2.08
2022-10-13T09:54:36.216Z,1.55
2022-10-13T09:58:25.253Z,1.90
2022-10-13T10:02:29.736Z,3.10
2022-10-13T10:06:15.967Z,3.78
2022-10-13T10:10:06.295Z,3.97
2022-10-13T10:13:48.220Z,4.28
2022-10-13T10:17:41.452Z,3.38
2022-10-13T10:21:38.495Z,2.80
2022-10-13T10:25:37.193Z,2.75
2022-10-13T10:29:46.659Z,2.63
2022-10-13T10:33:51.479Z,2.05
2022-10-13T10:37:36.251Z,1.90
2022-10-13T10:41:43.150Z,1.40
2022-10-13T10:45:38.878Z,2.00
2022-10-13T10:49:30.886Z,1.83
2022-10-13T10:53:34.036Z,2.03
2022-10-13T10:57:25.333Z,2.15
2022-10-13T11:01:25.047Z,2.78
2022-10-13T11:05:07.128Z,2.72
2022-10-13T11:08:50.036Z,2.28
2022-10-13T11:12:47.062Z,2.95
2022-10-13T11:16:28.947Z,2.28
2022-10-13T11:20:20.196Z,2.42
2022-10-13T11:24:02.411Z,2.20
2022-10-13T11:27:44.959Z,1.80
2022-10-13T11:31:33.714Z,2.15
2022-10-13T11:35:28.008Z,2.03
2022-10-13T11:39:33.899Z,2.53
2022-10-13T11:47:12.235Z,1.80
2022-10-13T11:51:28.248Z,2.33
2022-10-13T11:55:19.791Z,1.83
2022-10-13T11:59:01.642Z,1.92
2022-10-13T12:02:53.547Z,1.83
2022-10-13T12:06:36.996Z,2.47
2022-10-13T12:10:31.559Z,2.50
2022-10-13T12:14:29.639Z,2.30
2022-10-13T12:18:36.662Z,2.30
2022-10-13T12:22:18.488Z,3.00
2022-10-13T12:26:00.686Z,2.40
2022-10-13T12:29:42.502Z,2.60
2022-10-13T12:33:38.869Z,2.15
2022-10-13T12:37:28.333Z,2.58
2022-10-13T12:41:10.682Z,2.22
2022-10-13T12:44:52.738Z,2.72
2022-10-13T12:48:37.114Z,2.45
2022-10-13T12:52:24.263Z,2.55
2022-10-13T12:56:07.220Z,2.00
2022-10-13T12:59:49.705Z,2.08
2022-10-13T13:03:31.849Z,2.33
2022-10-13T13:07:34.584Z,2.40
2022-10-13T13:11:35.795Z,1.30
2022-10-13T13:15:38.045Z,2.38
2022-10-13T13:19:23.194Z,1.95
2022-10-13T13:23:05.741Z,1.73
2022-10-13T13:26:47.714Z,2.13
2022-10-13T13:30:29.539Z,1.88
2022-10-13T13:34:11.411Z,1.92
2022-10-13T13:37:53.657Z,3.00
2022-10-13T13:41:35.827Z,2.42
2022-10-13T13:45:20.571Z,2.10
2022-10-13T13:49:02.906Z,2.53
2022-10-13T13:52:44.730Z,1.88
2022-10-13T13:56:26.588Z,2.15
2022-10-13T14:00:10.151Z,1.83
2022-10-13T14:03:51.994Z,2.40
2022-10-13T14:07:33.796Z,2.47
2022-10-13T14:11:15.694Z,2.75
2022-10-13T14:14:58.590Z,2.53
2022-10-13T14:18:40.435Z,2.30
2022-10-13T14:22:23.019Z,3.17
2022-10-13T14:26:07.703Z,1.92
2022-10-13T14:29:49.598Z,2.35
2022-10-13T14:33:31.466Z,2.38
2022-10-13T14:37:13.326Z,3.08
2022-10-13T14:41:05.151Z,2.78
2022-10-13T14:44:47.226Z,2.50
2022-10-13T14:48:34.191Z,2.70
2022-10-13T14:52:16.055Z,2.83
2022-10-13T14:55:57.848Z,2.88
2022-10-13T14:59:39.662Z,3.58
2022-10-13T15:03:27.775Z,2.92
2022-10-13T15:07:09.659Z,2.90
2022-10-13T15:11:03.967Z,2.83
2022-10-13T15:14:45.788Z,3.15
2022-10-13T15:18:29.411Z,2.90
2022-10-13T15:22:11.658Z,2.72
2022-10-13T15:25:56.383Z,2.63
2022-10-13T15:29:38.175Z,2.83
2022-10-13T15:33:20.251Z,3.03
2022-10-13T15:37:02.074Z,3.38
2022-10-13T15:40:43.877Z,3.28
2022-10-13T15:44:26.509Z,4.10
2022-10-13T15:48:10.280Z,3.67
2022-10-13T15:51:52.292Z,4.00
2022-10-13T15:55:34.495Z,3.80
2022-10-13T15:59:16.432Z,3.45
2022-10-13T16:02:58.223Z,3.33
2022-10-13T16:06:40.067Z,3.22
2022-10-13T16:10:22.223Z,3.85
2022-10-13T16:14:04.151Z,3.40
2022-10-13T16:17:46.437Z,3.92
2022-10-13T16:21:28.302Z,4.32
2022-10-13T16:25:11.063Z,4.00
2022-10-13T16:28:56.868Z,4.28
2022-10-13T16:32:41.717Z,3.30
2022-10-13T16:36:25.205Z,4.18
2022-10-13T16:40:07.607Z,3.30
2022-10-13T16:43:50.215Z,4.10
2022-10-13T16:47:32.060Z,3.95
2022-10-13T16:51:16.651Z,3.60
2022-10-13T16:54:58.454Z,3.65
2022-10-13T16:58:44.979Z,3.88
2022-10-13T17:02:26.898Z,4.25
2022-10-13T17:06:09.808Z,3.60
2022-10-13T17:09:51.617Z,3.50
2022-10-13T17:13:35.705Z,3.50
2022-10-13T17:17:17.644Z,4.65
2022-10-13T17:21:01.965Z,4.30
2022-10-13T17:24:48.106Z,5.18
2022-10-13T17:28:29.942Z,5.10
2022-10-13T17:32:11.896Z,4.55
2022-10-13T17:35:58.075Z,4.40
2022-10-13T17:39:40.347Z,4.32
2022-10-13T17:43:22.202Z,3.95
2022-10-13T17:47:04.124Z,4.72
2022-10-13T17:50:45.999Z,4.43
2022-10-13T17:54:27.841Z,4.45
2022-10-13T17:58:09.782Z,4.55
2022-10-13T18:01:51.630Z,4.70
2022-10-13T18:05:34.884Z,4.85
2022-10-13T18:09:19.018Z,4.85
2022-10-13T18:13:00.880Z,4.25
2022-10-13T18:16:44.049Z,5.00
2022-10-13T18:20:26.039Z,4.97
2022-10-13T18:24:10.071Z,4.60
2022-10-13T18:27:51.903Z,4.60
2022-10-13T18:31:35.794Z,4.50
2022-10-13T18:35:17.730Z,5.43
2022-10-13T18:39:07.883Z,4.88
2022-10-13T18:42:54.571Z,4.95
2022-10-13T18:46:38.282Z,5.68
2022-10-13T18:50:20.085Z,5.32
2022-10-13T18:54:02.103Z,5.10
2022-10-13T18:57:43.946Z,4.82
2022-10-13T19:01:27.488Z,4.63
2022-10-13T19:05:09.790Z,4.88
2022-10-13T19:08:51.587Z,6.65
2022-10-13T19:12:34.688Z,6.65
2022-10-13T19:16:19.332Z,7.38
2022-10-13T19:20:01.242Z,6.70
2022-10-13T19:23:43.635Z,7.00
2022-10-13T19:27:25.517Z,5.95
2022-10-13T19:31:09.330Z,7.13
2022-10-13T19:34:51.218Z,6.47
2022-10-13T19:38:33.013Z,6.47
2022-10-13T19:42:14.823Z,6.82
2022-10-13T19:45:59.729Z,6.28
2022-10-13T19:49:42.161Z,6.13
2022-10-13T19:53:24.519Z,7.07
2022-10-13T19:57:06.355Z,6.72
2022-10-13T20:00:49.801Z,5.78
2022-10-13T20:04:31.794Z,5.88
2022-10-13T20:08:13.850Z,6.18
2022-10-13T20:11:55.976Z,6.10
2022-10-13T20:15:42.983Z,6.03
2022-10-13T20:23:06.651Z,5.82
2022-10-13T20:26:48.775Z,5.72
2022-10-13T20:30:30.591Z,6.00
2022-10-13T20:34:12.527Z,5.75
2022-10-13T20:37:54.563Z,6.28
2022-10-13T20:41:36.802Z,6.47
2022-10-13T20:45:19.273Z,5.68
2022-10-13T20:49:16.827Z,7.28
2022-10-13T20:52:58.745Z,6.57
2022-10-13T20:56:40.965Z,6.13
2022-10-13T21:00:22.838Z,5.78
2022-10-13T21:04:05.256Z,5.53
2022-10-13T21:07:47.235Z,6.70
2022-10-13T21:11:29.172Z,7.95
2022-10-13T21:15:11.211Z,7.00
2022-10-13T21:18:53.847Z,7.00
2022-10-13T21:22:35.652Z,6.18
2022-10-13T21:26:21.689Z,7.35
2022-10-13T21:30:05.419Z,6.90
2022-10-13T21:33:47.452Z,6.65
2022-10-13T21:37:29.245Z,7.63
2022-10-13T21:41:12.945Z,6.65
2022-10-13T21:44:54.761Z,6.25
2022-10-13T21:48:37.135Z,6.93
2022-10-13T21:52:19.019Z,6.75
2022-10-13T21:56:08.515Z,7.10
2022-10-13T21:59:50.310Z,7.70
2022-10-13T22:03:33.166Z,7.32
2022-10-13T22:07:14.955Z,6.95
2022-10-13T22:10:57.736Z,7.38
2022-10-13T22:14:39.533Z,7.30
2022-10-13T22:18:21.360Z,6.57
2022-10-13T22:22:03.466Z,6.88
2022-10-13T22:25:46.335Z,7.38
2022-10-13T22:29:28.161Z,6.15
2022-10-13T22:33:09.975Z,6.85
2022-10-13T22:36:52.074Z,7.15
2022-10-13T22:40:33.859Z,7.88
2022-10-13T22:44:15.787Z,7.18
2022-10-13T22:47:57.588Z,7.22
2022-10-13T22:51:40.877Z,8.05
2022-10-13T22:55:23.120Z,7.03
2022-10-13T22:59:07.395Z,7.30
2022-10-13T23:02:49.243Z,6.25
2022-10-13T23:06:32.619Z,7.43
2022-10-13T23:10:14.488Z,7.43
2022-10-13T23:13:56.351Z,7.82
2022-10-13T23:17:38.198Z,7.55
2022-10-13T23:21:22.266Z,7.53
2022-10-13T23:25:04.252Z,8.20
2022-10-13T23:28:49.267Z,7.80
2022-10-13T23:32:31.137Z,8.13
2022-10-13T23:36:21.859Z,8.55
2022-10-13T23:40:03.926Z,9.00
2022-10-13T23:43:45.780Z,7.53
2022-10-13T23:47:27.619Z,8.68
2022-10-13T23:51:21.150Z,8.23
2022-10-13T23:55:03.258Z,8.25
2022-10-13T23:58:45.559Z,7.72
